createdAt,value
2023-03-06T00:00:23.278Z,13.93
2023-03-06T00:00:59.055Z,14.33
2023-03-06T00:01:31.368Z,14.20
2023-03-06T00:02:03.847Z,14.20
2023-03-06T00:02:36.148Z,13.43
2023-03-06T00:03:09.074Z,13.90
2023-03-06T00:03:41.392Z,14.60
2023-03-06T00:04:13.799Z,14.73
2023-03-06T00:04:46.131Z,14.03
2023-03-06T00:05:18.758Z,14.00
2023-03-06T00:05:51.128Z,14.50
2023-03-06T00:06:23.421Z,14.10
2023-03-06T00:06:55.763Z,14.17
2023-03-06T00:07:28.041Z,14.27
2023-03-06T00:08:00.339Z,13.73
2023-03-06T00:08:32.627Z,13.53
2023-03-06T00:09:04.933Z,14.33
2023-03-06T00:09:37.252Z,14.20
2023-03-06T00:10:15.475Z,14.43
2023-03-06T00:10:47.875Z,13.80
2023-03-06T00:11:21.032Z,13.23
2023-03-06T00:11:53.316Z,14.27
2023-03-06T00:12:27.619Z,14.43
2023-03-06T00:13:06.030Z,14.30
2023-03-06T00:13:38.634Z,14.30
2023-03-06T00:14:10.970Z,13.90
2023-03-06T00:14:43.350Z,14.53
2023-03-06T00:15:15.729Z,13.70
2023-03-06T00:15:49.007Z,14.47
2023-03-06T00:16:21.389Z,15.03
2023-03-06T00:16:56.928Z,14.73
2023-03-06T00:17:29.241Z,14.90
2023-03-06T00:18:04.550Z,14.67
2023-03-06T00:18:36.937Z,14.60
2023-03-06T00:19:09.316Z,15.03
2023-03-06T00:19:41.669Z,14.27
2023-03-06T00:20:15.550Z,15.03
2023-03-06T00:20:47.825Z,13.67
2023-03-06T00:21:20.221Z,14.10
2023-03-06T00:21:52.490Z,14.93
2023-03-06T00:22:24.757Z,15.30
2023-03-06T00:22:57.660Z,15.67
2023-03-06T00:23:30.118Z,15.23
2023-03-06T00:24:02.435Z,14.50
2023-03-06T00:24:34.721Z,13.77
2023-03-06T00:25:08.388Z,14.43
2023-03-06T00:25:45.205Z,15.03
2023-03-06T00:26:17.472Z,14.60
2023-03-06T00:26:49.778Z,14.67
2023-03-06T00:27:22.143Z,14.53
2023-03-06T00:27:54.396Z,14.90
2023-03-06T00:28:27.228Z,14.27
2023-03-06T00:28:59.601Z,13.43
2023-03-06T00:29:32.016Z,13.57
2023-03-06T00:30:05.746Z,14.37
2023-03-06T00:30:38.212Z,14.77
2023-03-06T00:31:10.520Z,13.93
2023-03-06T00:31:46.357Z,14.13
2023-03-06T00:32:18.720Z,15.00
2023-03-06T00:32:53.220Z,14.33
2023-03-06T00:33:25.566Z,14.33
2023-03-06T00:33:57.857Z,14.20
2023-03-06T00:34:30.147Z,13.27
2023-03-06T00:35:02.439Z,14.70
2023-03-06T00:35:34.747Z,14.57
2023-03-06T00:36:07.510Z,14.40
2023-03-06T00:36:39.841Z,14.87
2023-03-06T00:37:12.106Z,14.53
2023-03-06T00:37:44.941Z,13.87
2023-03-06T00:38:17.348Z,14.17
2023-03-06T00:38:49.635Z,15.10
2023-03-06T00:39:22.206Z,15.83
2023-03-06T00:39:54.550Z,14.33
2023-03-06T00:40:27.285Z,14.60
2023-03-06T00:40:59.876Z,14.90
2023-03-06T00:41:32.176Z,14.13
2023-03-06T00:42:04.660Z,14.50
2023-03-06T00:42:36.994Z,14.90
2023-03-06T00:43:09.503Z,14.43
2023-03-06T00:43:41.885Z,14.20
2023-03-06T00:44:14.136Z,14.53
2023-03-06T00:44:46.510Z,14.13
2023-03-06T00:45:18.894Z,14.10
2023-03-06T00:45:51.483Z,14.17
2023-03-06T00:46:23.819Z,14.73
2023-03-06T00:46:56.111Z,14.90
2023-03-06T00:47:28.489Z,14.67
2023-03-06T00:48:00.806Z,14.03
2023-03-06T00:48:33.658Z,14.17
2023-03-06T00:49:05.942Z,14.90
2023-03-06T00:49:38.364Z,14.33
2023-03-06T00:50:11.500Z,14.23
2023-03-06T00:50:43.849Z,13.87
2023-03-06T00:51:17.313Z,13.90
2023-03-06T00:51:49.611Z,13.47
2023-03-06T00:52:21.995Z,14.33
2023-03-06T00:52:54.310Z,14.27
2023-03-06T00:53:26.641Z,13.53
2023-03-06T00:53:59.022Z,13.70
2023-03-06T00:54:31.347Z,13.57
2023-03-06T00:55:04.254Z,13.70
2023-03-06T00:55:36.598Z,14.70
2023-03-06T00:56:09.219Z,14.53
2023-03-06T00:56:41.555Z,15.13
2023-03-06T00:57:13.815Z,14.63
2023-03-06T00:57:46.118Z,14.33
2023-03-06T00:58:18.548Z,14.67
2023-03-06T00:58:50.888Z,14.27
2023-03-06T00:59:23.194Z,14.27
2023-03-06T00:59:55.503Z,14.67
2023-03-06T01:00:27.773Z,14.83
2023-03-06T01:01:00.033Z,14.57
2023-03-06T01:01:32.401Z,14.07
2023-03-06T01:02:05.099Z,14.50
2023-03-06T01:02:37.444Z,14.87
2023-03-06T01:03:09.827Z,14.73
2023-03-06T01:03:42.105Z,14.43
2023-03-06T01:04:14.672Z,13.73
2023-03-06T01:04:47.013Z,13.53
2023-03-06T01:05:19.431Z,14.37
2023-03-06T01:05:51.686Z,14.63
2023-03-06T01:06:24.331Z,14.57
2023-03-06T01:06:56.670Z,15.03
2023-03-06T01:07:29.833Z,14.73
2023-03-06T01:08:02.224Z,15.27
2023-03-06T01:08:34.654Z,15.13
2023-03-06T01:09:06.954Z,14.70
2023-03-06T01:09:39.273Z,15.63
2023-03-06T01:10:12.049Z,15.00
2023-03-06T01:10:44.314Z,14.53
2023-03-06T01:11:16.682Z,14.67
2023-03-06T01:11:48.943Z,15.53
2023-03-06T01:12:23.311Z,15.13
2023-03-06T01:12:55.922Z,14.90
2023-03-06T01:13:28.269Z,16.03
2023-03-06T01:14:00.852Z,14.87
2023-03-06T01:14:33.441Z,14.20
2023-03-06T01:15:07.075Z,13.83
2023-03-06T01:15:40.086Z,13.73
2023-03-06T01:16:15.540Z,15.27
2023-03-06T01:16:48.068Z,15.13
2023-03-06T01:17:20.359Z,15.30
2023-03-06T01:17:54.576Z,15.93
2023-03-06T01:18:26.885Z,15.83
2023-03-06T01:18:59.457Z,15.47
2023-03-06T01:19:31.730Z,15.30
2023-03-06T01:20:05.150Z,14.87
2023-03-06T01:20:37.802Z,15.27
2023-03-06T01:21:10.114Z,16.27
2023-03-06T01:21:42.443Z,16.30
2023-03-06T01:22:14.696Z,16.37
2023-03-06T01:22:46.965Z,15.80
2023-03-06T01:23:19.220Z,16.00
2023-03-06T01:23:51.579Z,15.53
2023-03-06T01:24:25.763Z,15.93
2023-03-06T01:24:58.126Z,15.47
2023-03-06T01:25:30.486Z,15.03
2023-03-06T01:26:02.986Z,15.33
2023-03-06T01:26:35.359Z,15.37
2023-03-06T01:27:07.674Z,14.50
2023-03-06T01:27:39.984Z,14.93
2023-03-06T01:28:12.244Z,15.50
2023-03-06T01:28:44.555Z,15.63
2023-03-06T01:29:16.863Z,15.93
2023-03-06T01:29:49.269Z,15.47
2023-03-06T01:30:21.585Z,14.53
2023-03-06T01:30:54.764Z,15.60
2023-03-06T01:31:27.227Z,15.53
2023-03-06T01:31:59.653Z,14.83
2023-03-06T01:32:32.847Z,14.97
2023-03-06T01:33:05.125Z,15.83
2023-03-06T01:33:37.823Z,15.60
2023-03-06T01:34:10.124Z,14.63
2023-03-06T01:34:42.465Z,15.37
2023-03-06T01:35:15.245Z,16.43
2023-03-06T01:35:47.830Z,15.83
2023-03-06T01:36:20.227Z,16.37
2023-03-06T01:36:52.482Z,15.60
2023-03-06T01:37:24.767Z,15.47
2023-03-06T01:37:57.084Z,14.97
2023-03-06T01:38:29.746Z,14.47
2023-03-06T01:39:02.122Z,14.97
2023-03-06T01:39:34.431Z,15.23
2023-03-06T01:40:08.848Z,15.37
2023-03-06T01:40:41.112Z,16.20
2023-03-06T01:41:15.874Z,15.63
2023-03-06T01:41:48.225Z,15.80
2023-03-06T01:42:20.663Z,15.93
2023-03-06T01:42:52.956Z,16.13
2023-03-06T01:43:28.083Z,15.20
2023-03-06T01:44:00.534Z,16.13
2023-03-06T01:44:33.151Z,15.87
2023-03-06T01:45:27.621Z,16.03
2023-03-06T01:46:24.571Z,15.77
2023-03-06T01:46:56.937Z,16.70
2023-03-06T01:47:29.347Z,16.63
2023-03-06T01:48:01.644Z,15.43
2023-03-06T01:48:34.089Z,16.30
2023-03-06T01:49:13.199Z,16.40
2023-03-06T01:49:45.570Z,16.27
2023-03-06T01:50:17.988Z,16.97
2023-03-06T01:50:52.840Z,16.67
2023-03-06T01:51:30.523Z,16.13
2023-03-06T01:52:16.997Z,17.17
2023-03-06T01:52:57.188Z,17.20
2023-03-06T01:53:29.794Z,16.73
2023-03-06T01:54:08.711Z,17.20
2023-03-06T01:54:46.645Z,16.83
2023-03-06T01:55:39.388Z,17.70
2023-03-06T01:56:14.212Z,17.33
2023-03-06T01:56:51.294Z,16.43
2023-03-06T01:57:26.199Z,16.20
2023-03-06T01:58:02.842Z,17.10
2023-03-06T01:58:35.288Z,16.63
2023-03-06T01:59:07.817Z,16.63
2023-03-06T01:59:42.731Z,17.10
2023-03-06T02:00:18.539Z,16.87
2023-03-06T02:00:50.829Z,16.43
2023-03-06T02:01:23.410Z,17.30
2023-03-06T02:01:59.005Z,17.97
2023-03-06T02:02:31.377Z,17.43
2023-03-06T02:03:14.614Z,16.27
2023-03-06T02:03:49.920Z,16.80
2023-03-06T02:04:22.536Z,16.97
2023-03-06T02:04:54.808Z,16.93
2023-03-06T02:05:27.190Z,17.87
2023-03-06T02:05:59.655Z,17.83
2023-03-06T02:06:36.527Z,17.00
2023-03-06T02:07:10.415Z,17.57
2023-03-06T02:07:44.355Z,17.50
2023-03-06T02:08:20.064Z,17.33
2023-03-06T02:08:52.901Z,17.27
2023-03-06T02:09:29.861Z,16.60
2023-03-06T02:10:02.190Z,17.20
2023-03-06T02:10:34.775Z,17.53
2023-03-06T02:11:20.864Z,17.80
2023-03-06T02:11:53.134Z,17.50
2023-03-06T02:12:26.434Z,17.87
2023-03-06T02:12:58.899Z,17.33
2023-03-06T02:13:31.393Z,17.87
2023-03-06T02:14:04.103Z,18.80
2023-03-06T02:14:38.248Z,19.50
2023-03-06T02:15:12.892Z,19.30
2023-03-06T02:15:45.192Z,17.47
2023-03-06T02:16:21.404Z,17.10
2023-03-06T02:16:53.912Z,17.67
2023-03-06T02:17:27.652Z,18.70
2023-03-06T02:18:00.280Z,18.10
2023-03-06T02:18:34.079Z,18.27
2023-03-06T02:19:13.801Z,18.77
2023-03-06T02:20:12.008Z,18.57
2023-03-06T02:20:50.359Z,18.90
2023-03-06T02:21:30.702Z,19.50
2023-03-06T02:22:03.459Z,21.53
2023-03-06T02:22:54.356Z,22.10
2023-03-06T02:23:31.734Z,20.93
2023-03-06T02:24:06.983Z,20.80
2023-03-06T02:24:49.977Z,20.17
2023-03-06T02:25:31.571Z,20.00
2023-03-06T02:26:05.478Z,19.80
2023-03-06T02:26:39.277Z,18.50
2023-03-06T02:27:14.314Z,19.00
2023-03-06T02:27:47.966Z,19.63
2023-03-06T02:28:23.542Z,19.37
2023-03-06T02:28:58.432Z,18.50
2023-03-06T02:29:30.939Z,18.70
2023-03-06T02:30:08.753Z,18.23
2023-03-06T02:30:42.747Z,17.90
2023-03-06T02:31:25.202Z,18.07
2023-03-06T02:31:58.081Z,18.53
2023-03-06T02:32:30.385Z,17.80
2023-03-06T02:33:03.439Z,18.57
2023-03-06T02:33:35.764Z,17.87
2023-03-06T02:34:13.848Z,18.33
2023-03-06T02:34:50.792Z,18.07
2023-03-06T02:35:25.905Z,19.40
2023-03-06T02:36:04.529Z,19.07
2023-03-06T02:36:43.159Z,18.43
2023-03-06T02:37:15.436Z,19.10
2023-03-06T02:37:47.819Z,19.43
2023-03-06T02:38:24.078Z,18.13
2023-03-06T02:38:58.108Z,18.63
2023-03-06T02:39:34.112Z,19.00
2023-03-06T02:40:12.377Z,17.27
2023-03-06T02:40:48.721Z,17.80
2023-03-06T02:41:21.019Z,18.30
2023-03-06T02:41:53.406Z,18.37
2023-03-06T02:42:28.966Z,18.03
2023-03-06T02:43:01.712Z,18.57
2023-03-06T02:43:38.457Z,19.27
2023-03-06T02:44:10.764Z,18.50
2023-03-06T02:44:43.098Z,18.20
2023-03-06T02:45:22.097Z,18.87
2023-03-06T02:45:54.436Z,18.47
2023-03-06T02:46:26.769Z,18.43
2023-03-06T02:46:59.073Z,18.50
2023-03-06T02:47:31.936Z,18.13
2023-03-06T02:48:04.429Z,18.20
2023-03-06T02:48:36.736Z,17.70
2023-03-06T02:49:09.030Z,17.77
2023-03-06T02:49:41.320Z,17.77
2023-03-06T02:50:13.804Z,16.60
2023-03-06T02:50:47.404Z,16.60
2023-03-06T02:51:19.714Z,17.30
2023-03-06T02:51:52.039Z,18.27
2023-03-06T02:52:24.562Z,17.67
2023-03-06T02:52:56.843Z,18.77
2023-03-06T02:53:29.291Z,18.07
2023-03-06T02:54:01.621Z,18.00
2023-03-06T02:54:33.906Z,17.17
2023-03-06T02:55:06.717Z,18.00
2023-03-06T02:55:39.300Z,18.67
2023-03-06T02:56:11.590Z,18.00
2023-03-06T02:56:45.044Z,17.80
2023-03-06T02:57:17.321Z,17.13
2023-03-06T02:57:49.640Z,17.23
2023-03-06T02:58:21.972Z,17.53
2023-03-06T02:58:54.232Z,17.13
2023-03-06T02:59:26.554Z,17.83
2023-03-06T02:59:59.550Z,18.57
2023-03-06T03:00:32.649Z,18.23
2023-03-06T03:01:05.679Z,16.67
2023-03-06T03:01:38.121Z,17.37
2023-03-06T03:02:10.719Z,17.77
2023-03-06T03:02:44.074Z,17.70
2023-03-06T03:03:17.140Z,17.50
2023-03-06T03:03:49.404Z,17.83
2023-03-06T03:04:21.747Z,17.33
2023-03-06T03:04:54.070Z,17.07
2023-03-06T03:05:26.334Z,18.13
2023-03-06T03:05:59.963Z,18.17
2023-03-06T03:06:32.258Z,16.70
2023-03-06T03:07:04.580Z,17.10
2023-03-06T03:07:36.876Z,17.43
2023-03-06T03:08:09.176Z,17.30
2023-03-06T03:08:41.419Z,17.57
2023-03-06T03:09:14.106Z,18.10
2023-03-06T03:09:46.514Z,17.20
2023-03-06T03:10:18.934Z,17.40
2023-03-06T03:10:51.371Z,17.00
2023-03-06T03:11:23.662Z,17.30
2023-03-06T03:11:56.010Z,17.20
2023-03-06T03:12:28.741Z,17.17
2023-03-06T03:13:01.030Z,18.93
2023-03-06T03:13:33.341Z,18.10
2023-03-06T03:14:05.627Z,17.77
2023-03-06T03:14:38.012Z,18.00
2023-03-06T03:15:10.795Z,17.30
2023-03-06T03:15:43.250Z,16.20
2023-03-06T03:16:15.790Z,16.13
2023-03-06T03:16:48.112Z,17.20
2023-03-06T03:17:20.433Z,17.27
2023-03-06T03:17:52.775Z,17.27
2023-03-06T03:18:25.152Z,17.40
2023-03-06T03:18:57.458Z,17.67
2023-03-06T03:19:30.075Z,17.93
2023-03-06T03:20:02.592Z,16.90
2023-03-06T03:20:34.892Z,16.90
2023-03-06T03:21:11.523Z,16.37
2023-03-06T03:21:43.802Z,16.87
2023-03-06T03:22:16.862Z,16.53
2023-03-06T03:22:51.367Z,16.67
2023-03-06T03:23:24.423Z,17.13
2023-03-06T03:23:56.861Z,16.57
2023-03-06T03:24:29.195Z,16.50
2023-03-06T03:25:01.512Z,17.57
2023-03-06T03:25:33.807Z,17.17
2023-03-06T03:26:18.610Z,16.67
2023-03-06T03:26:50.942Z,17.30
2023-03-06T03:27:23.279Z,17.40
2023-03-06T03:27:55.589Z,16.93
2023-03-06T03:28:27.849Z,16.37
2023-03-06T03:29:00.156Z,16.43
2023-03-06T03:29:33.436Z,17.87
2023-03-06T03:30:06.240Z,17.37
2023-03-06T03:30:40.492Z,16.93
2023-03-06T03:31:13.256Z,17.37
2023-03-06T03:31:45.585Z,16.73
2023-03-06T03:32:17.958Z,16.73
2023-03-06T03:32:50.436Z,17.07
2023-03-06T03:33:22.702Z,17.50
2023-03-06T03:33:55.036Z,16.83
2023-03-06T03:34:27.642Z,17.30
2023-03-06T03:34:59.989Z,16.73
2023-03-06T03:35:32.485Z,17.37
2023-03-06T03:36:07.262Z,17.00
2023-03-06T03:36:40.138Z,16.97
2023-03-06T03:37:12.409Z,17.63
2023-03-06T03:37:44.685Z,17.83
2023-03-06T03:38:17.037Z,17.10
2023-03-06T03:38:49.306Z,17.60
2023-03-06T03:39:21.643Z,15.73
2023-03-06T03:39:53.942Z,17.03
2023-03-06T03:40:26.301Z,18.13
2023-03-06T03:40:58.584Z,17.70
2023-03-06T03:41:31.184Z,17.53
2023-03-06T03:42:03.566Z,17.83
2023-03-06T03:42:35.862Z,17.03
2023-03-06T03:43:08.121Z,17.07
2023-03-06T03:43:40.442Z,18.13
2023-03-06T03:44:12.742Z,16.60
2023-03-06T03:44:45.138Z,17.43
2023-03-06T03:45:17.475Z,18.53
2023-03-06T03:45:49.830Z,18.77
2023-03-06T03:46:22.118Z,17.63
2023-03-06T03:46:54.415Z,18.40
2023-03-06T03:47:26.688Z,18.87
2023-03-06T03:47:58.974Z,19.23
2023-03-06T03:48:31.373Z,19.10
2023-03-06T03:49:04.223Z,19.03
2023-03-06T03:49:36.536Z,19.00
2023-03-06T03:50:11.479Z,17.83
2023-03-06T03:50:43.816Z,18.63
2023-03-06T03:51:16.659Z,18.57
2023-03-06T03:51:48.996Z,19.50
2023-03-06T03:52:21.315Z,20.17
2023-03-06T03:52:53.568Z,21.03
2023-03-06T03:53:25.860Z,20.87
2023-03-06T03:53:58.194Z,20.57
2023-03-06T03:54:30.610Z,21.73
2023-03-06T03:55:03.946Z,20.47
2023-03-06T03:55:36.686Z,19.93
2023-03-06T03:56:09.050Z,20.77
2023-03-06T03:56:41.867Z,19.60
2023-03-06T03:57:14.155Z,20.57
2023-03-06T03:57:46.441Z,20.67
2023-03-06T03:58:18.717Z,20.47
2023-03-06T03:58:51.859Z,19.97
2023-03-06T03:59:24.504Z,19.93
2023-03-06T03:59:56.898Z,20.47
2023-03-06T04:00:29.245Z,21.17
2023-03-06T04:01:02.021Z,20.47
2023-03-06T04:01:34.430Z,20.00
2023-03-06T04:02:06.801Z,19.80
2023-03-06T04:02:39.127Z,19.50
2023-03-06T04:03:11.435Z,20.83
2023-03-06T04:03:43.916Z,20.73
2023-03-06T04:04:16.490Z,20.57
2023-03-06T04:04:49.014Z,21.03
2023-03-06T04:05:21.295Z,21.60
2023-03-06T04:05:58.005Z,21.07
2023-03-06T04:06:30.647Z,21.70
2023-03-06T04:07:04.434Z,21.37
2023-03-06T04:07:36.982Z,20.97
2023-03-06T04:08:09.817Z,21.63
2023-03-06T04:08:42.196Z,21.93
2023-03-06T04:09:14.504Z,21.73
2023-03-06T04:09:47.381Z,22.03
2023-03-06T04:10:19.681Z,21.83
2023-03-06T04:10:52.846Z,21.87
2023-03-06T04:11:25.365Z,23.13
2023-03-06T04:11:57.635Z,22.77
2023-03-06T04:12:29.919Z,22.87
2023-03-06T04:13:02.260Z,23.77
2023-03-06T04:13:34.549Z,23.10
2023-03-06T04:14:08.315Z,22.93
2023-03-06T04:14:40.558Z,22.80
2023-03-06T04:15:12.860Z,22.60
2023-03-06T04:15:45.382Z,22.83
2023-03-06T04:16:17.741Z,23.10
2023-03-06T04:16:50.030Z,22.77
2023-03-06T04:17:22.315Z,21.73
2023-03-06T04:17:54.609Z,22.67
2023-03-06T04:18:27.248Z,23.67
2023-03-06T04:18:59.524Z,22.13
2023-03-06T04:19:32.687Z,23.03
2023-03-06T04:20:05.418Z,23.53
2023-03-06T04:20:37.730Z,22.73
2023-03-06T04:21:10.033Z,22.83
2023-03-06T04:21:42.349Z,22.50
2023-03-06T04:22:14.668Z,23.37
2023-03-06T04:23:07.286Z,23.27
2023-03-06T04:23:59.781Z,23.20
2023-03-06T04:24:32.100Z,23.93
2023-03-06T04:25:04.702Z,24.57
2023-03-06T04:25:37.019Z,25.53
2023-03-06T04:26:09.697Z,26.27
2023-03-06T04:26:42.084Z,27.83
2023-03-06T04:27:14.437Z,28.03
2023-03-06T04:27:46.702Z,27.57
2023-03-06T04:28:19.077Z,28.17
2023-03-06T04:28:51.384Z,29.63
2023-03-06T04:29:23.860Z,29.30
2023-03-06T04:29:56.504Z,30.50
2023-03-06T04:30:28.806Z,31.20
2023-03-06T04:31:01.100Z,32.27
2023-03-06T04:31:33.844Z,31.17
2023-03-06T04:32:06.556Z,29.67
2023-03-06T04:32:38.961Z,29.60
2023-03-06T04:33:11.725Z,30.27
2023-03-06T04:33:44.043Z,30.83
2023-03-06T04:34:16.323Z,29.10
2023-03-06T04:34:48.606Z,29.10
2023-03-06T04:35:20.894Z,29.43
2023-03-06T04:35:53.621Z,30.37
2023-03-06T04:36:25.925Z,30.80
2023-03-06T04:36:58.189Z,31.10
2023-03-06T04:37:31.072Z,30.70
2023-03-06T04:38:04.666Z,31.57
2023-03-06T04:38:36.955Z,31.90
2023-03-06T04:39:09.365Z,32.47
2023-03-06T04:39:41.698Z,33.37
2023-03-06T04:40:23.765Z,31.83
2023-03-06T04:40:56.229Z,32.53
2023-03-06T04:41:28.793Z,34.67
2023-03-06T04:42:01.242Z,34.70
2023-03-06T04:42:33.591Z,33.80
2023-03-06T04:43:05.904Z,35.10
2023-03-06T04:43:39.615Z,36.17
2023-03-06T04:44:11.941Z,34.23
2023-03-06T04:44:44.911Z,35.20
2023-03-06T04:45:17.277Z,35.47
2023-03-06T04:45:49.629Z,36.20
2023-03-06T04:46:22.001Z,36.37
2023-03-06T04:46:54.309Z,36.07
2023-03-06T04:47:26.630Z,36.53
2023-03-06T04:47:59.750Z,34.17
2023-03-06T04:48:32.249Z,34.43
2023-03-06T04:49:04.621Z,34.93
2023-03-06T04:49:37.547Z,39.23
2023-03-06T04:50:10.577Z,40.13
2023-03-06T04:50:42.883Z,36.00
2023-03-06T04:51:15.186Z,33.27
2023-03-06T04:51:47.540Z,32.43
2023-03-06T04:52:19.837Z,34.07
2023-03-06T04:52:52.553Z,35.30
2023-03-06T04:53:24.844Z,36.57
2023-03-06T04:53:57.328Z,40.87
2023-03-06T04:54:30.098Z,37.73
2023-03-06T04:55:08.512Z,37.40
2023-03-06T04:55:40.815Z,37.93
2023-03-06T04:56:13.276Z,37.30
2023-03-06T04:56:45.572Z,33.87
2023-03-06T04:57:18.143Z,34.27
2023-03-06T04:57:50.484Z,35.77
2023-03-06T04:58:22.802Z,35.37
2023-03-06T04:58:55.520Z,35.77
2023-03-06T04:59:27.879Z,32.90
2023-03-06T05:00:00.198Z,34.20
2023-03-06T05:00:32.581Z,32.10
2023-03-06T05:01:05.056Z,32.20
2023-03-06T05:01:37.416Z,32.33
2023-03-06T05:02:09.821Z,32.83
2023-03-06T05:02:44.078Z,31.43
2023-03-06T05:03:16.536Z,31.33
2023-03-06T05:03:49.802Z,31.43
2023-03-06T05:04:22.090Z,31.07
2023-03-06T05:04:54.404Z,33.30
2023-03-06T05:05:27.592Z,36.57
2023-03-06T05:05:59.903Z,50.37
2023-03-06T05:06:32.620Z,57.93
2023-03-06T05:07:05.009Z,59.40
2023-03-06T05:07:37.831Z,58.60
2023-03-06T05:08:15.344Z,56.23
2023-03-06T05:08:48.018Z,51.63
2023-03-06T05:09:20.363Z,46.77
2023-03-06T05:09:52.680Z,44.57
2023-03-06T05:10:25.181Z,48.50
2023-03-06T05:11:00.510Z,54.27
2023-03-06T05:11:32.798Z,60.30
2023-03-06T05:12:05.155Z,59.83
2023-03-06T05:12:37.884Z,57.77
2023-03-06T05:13:10.610Z,54.33
2023-03-06T05:13:43.001Z,55.00
2023-03-06T05:14:15.322Z,54.87
2023-03-06T05:14:48.150Z,49.03
2023-03-06T05:15:21.039Z,48.63
2023-03-06T05:15:53.971Z,48.60
2023-03-06T05:16:26.987Z,48.57
2023-03-06T05:17:00.375Z,48.17
2023-03-06T05:17:32.885Z,47.60
2023-03-06T05:18:05.183Z,47.57
2023-03-06T05:18:37.607Z,45.87
2023-03-06T05:19:09.902Z,44.53
2023-03-06T05:19:42.160Z,42.90
2023-03-06T05:20:16.752Z,44.30
2023-03-06T05:20:49.063Z,42.40
2023-03-06T05:21:21.352Z,41.17
2023-03-06T05:21:53.623Z,39.97
2023-03-06T05:22:26.024Z,37.33
2023-03-06T05:22:58.308Z,36.03
2023-03-06T05:23:32.479Z,36.60
2023-03-06T05:24:04.909Z,35.10
2023-03-06T05:24:37.452Z,35.50
2023-03-06T05:25:10.771Z,35.60
2023-03-06T05:25:43.073Z,35.47
2023-03-06T05:26:16.307Z,36.07
2023-03-06T05:26:48.613Z,37.10
2023-03-06T05:27:20.990Z,38.47
2023-03-06T05:27:53.259Z,38.23
2023-03-06T05:28:26.648Z,38.00
2023-03-06T05:28:58.957Z,37.67
2023-03-06T05:29:31.253Z,38.47
2023-03-06T05:30:04.116Z,37.97
2023-03-06T05:30:36.423Z,37.93
2023-03-06T05:31:08.959Z,37.83
2023-03-06T05:31:41.298Z,38.43
2023-03-06T05:32:13.807Z,40.53
2023-03-06T05:32:46.297Z,43.27
2023-03-06T05:33:18.676Z,42.00
2023-03-06T05:33:50.966Z,39.10
2023-03-06T05:34:23.251Z,41.73
2023-03-06T05:34:55.775Z,42.77
2023-03-06T05:35:28.145Z,42.93
2023-03-06T05:36:01.065Z,43.97
2023-03-06T05:36:33.362Z,46.03
2023-03-06T05:37:05.754Z,44.27
2023-03-06T05:37:38.115Z,45.50
2023-03-06T05:38:10.461Z,44.10
2023-03-06T05:38:42.797Z,43.90
2023-03-06T05:39:15.065Z,44.37
2023-03-06T05:39:47.346Z,44.57
2023-03-06T05:40:19.731Z,43.77
2023-03-06T05:40:52.045Z,43.17
2023-03-06T05:41:24.310Z,43.83
2023-03-06T05:41:56.667Z,44.03
2023-03-06T05:42:31.149Z,44.60
2023-03-06T05:43:03.465Z,43.70
2023-03-06T05:43:35.756Z,41.90
2023-03-06T05:44:09.081Z,41.80
2023-03-06T05:44:41.844Z,42.70
2023-03-06T05:45:14.250Z,44.83
2023-03-06T05:45:46.637Z,43.97
2023-03-06T05:46:18.973Z,46.07
2023-03-06T05:46:51.329Z,46.07
2023-03-06T05:47:23.583Z,46.23
2023-03-06T05:47:55.859Z,46.97
2023-03-06T05:48:28.197Z,47.87
2023-03-06T05:49:00.549Z,46.50
2023-03-06T05:49:35.086Z,45.07
2023-03-06T05:50:08.400Z,44.67
2023-03-06T05:50:40.707Z,44.97
2023-03-06T05:51:13.003Z,45.20
2023-03-06T05:51:45.277Z,44.97
2023-03-06T05:52:17.837Z,42.57
2023-03-06T05:52:50.270Z,41.80
2023-03-06T05:53:22.582Z,41.00
2023-03-06T05:53:54.861Z,39.07
2023-03-06T05:54:27.163Z,39.70
2023-03-06T05:54:59.459Z,38.13
2023-03-06T05:55:31.809Z,38.40
2023-03-06T05:56:11.577Z,39.13
2023-03-06T05:56:43.862Z,36.67
2023-03-06T05:57:16.413Z,33.73
2023-03-06T05:57:48.743Z,35.13
2023-03-06T05:58:20.996Z,35.37
2023-03-06T05:58:53.280Z,33.50
2023-03-06T05:59:28.489Z,34.30
2023-03-06T06:00:00.893Z,34.10
2023-03-06T06:00:33.207Z,32.73
2023-03-06T06:01:20.053Z,34.17
2023-03-06T06:01:52.392Z,33.57
2023-03-06T06:02:24.732Z,33.83
2023-03-06T06:03:00.504Z,33.80
2023-03-06T06:03:32.799Z,33.20
2023-03-06T06:04:05.358Z,34.50
2023-03-06T06:04:37.773Z,35.73
2023-03-06T06:05:12.563Z,35.27
2023-03-06T06:05:45.331Z,34.87
2023-03-06T06:06:18.157Z,37.03
2023-03-06T06:06:56.112Z,37.10
2023-03-06T06:07:28.445Z,37.50
2023-03-06T06:08:01.080Z,39.13
2023-03-06T06:08:33.663Z,40.17
2023-03-06T06:09:06.043Z,39.23
2023-03-06T06:09:38.438Z,44.57
2023-03-06T06:10:11.662Z,55.70
2023-03-06T06:10:44.027Z,60.70
2023-03-06T06:11:18.297Z,53.27
2023-03-06T06:11:54.706Z,51.83
2023-03-06T06:12:27.495Z,51.67
2023-03-06T06:12:59.797Z,51.60
2023-03-06T06:13:32.568Z,58.43
2023-03-06T06:14:04.845Z,56.93
2023-03-06T06:14:37.386Z,52.60
2023-03-06T06:15:10.015Z,48.67
2023-03-06T06:15:42.325Z,47.83
2023-03-06T06:16:16.688Z,43.10
2023-03-06T06:16:49.526Z,41.77
2023-03-06T06:17:21.799Z,39.17
2023-03-06T06:17:54.283Z,38.93
2023-03-06T06:18:26.695Z,39.87
2023-03-06T06:18:59.121Z,41.10
2023-03-06T06:19:31.672Z,40.27
2023-03-06T06:20:04.676Z,40.60
2023-03-06T06:20:37.622Z,40.17
2023-03-06T06:21:12.015Z,39.40
2023-03-06T06:21:52.534Z,38.30
2023-03-06T06:22:25.003Z,37.57
2023-03-06T06:22:57.803Z,38.43
2023-03-06T06:23:30.105Z,42.13
2023-03-06T06:24:02.475Z,40.17
2023-03-06T06:24:34.908Z,36.43
2023-03-06T06:25:07.783Z,33.77
2023-03-06T06:25:40.151Z,34.17
2023-03-06T06:26:12.460Z,35.97
2023-03-06T06:26:45.359Z,37.00
2023-03-06T06:27:17.647Z,42.43
2023-03-06T06:27:49.996Z,43.10
2023-03-06T06:28:22.324Z,44.50
2023-03-06T06:28:54.759Z,44.77
2023-03-06T06:29:28.301Z,48.90
2023-03-06T06:30:00.647Z,48.40
2023-03-06T06:30:33.941Z,43.27
2023-03-06T06:31:12.254Z,38.30
2023-03-06T06:31:45.103Z,35.67
2023-03-06T06:32:17.415Z,36.73
2023-03-06T06:32:49.941Z,37.90
2023-03-06T06:33:22.322Z,36.67
2023-03-06T06:33:54.643Z,36.40
2023-03-06T06:34:28.232Z,37.80
2023-03-06T06:35:00.725Z,37.50
2023-03-06T06:35:36.202Z,36.87
2023-03-06T06:36:19.581Z,36.97
2023-03-06T06:36:53.531Z,38.80
2023-03-06T06:37:26.205Z,40.77
2023-03-06T06:37:58.499Z,44.77
2023-03-06T06:38:30.873Z,46.20
2023-03-06T06:39:08.077Z,43.90
2023-03-06T06:39:40.618Z,43.33
2023-03-06T06:40:13.274Z,42.70
2023-03-06T06:41:04.210Z,44.03
2023-03-06T06:41:54.920Z,43.37
2023-03-06T06:42:35.830Z,40.17
2023-03-06T06:43:10.734Z,37.60
2023-03-06T06:43:43.066Z,39.97
2023-03-06T06:44:16.291Z,62.10
2023-03-06T06:44:48.663Z,86.33
2023-03-06T06:45:23.535Z,85.70
2023-03-06T06:46:31.514Z,87.17
2023-03-06T06:47:21.999Z,104.27
2023-03-06T06:47:52.090Z,41.70
2023-03-06T06:48:24.818Z,119.37
2023-03-06T06:49:06.370Z,149.20
2023-03-06T06:49:39.801Z,342.50
2023-03-06T06:50:13.708Z,206.90
2023-03-06T06:50:46.092Z,101.37
2023-03-06T06:51:18.622Z,173.87
2023-03-06T06:51:50.914Z,153.50
2023-03-06T06:52:24.709Z,91.83
2023-03-06T06:52:57.131Z,57.57
2023-03-06T06:53:29.634Z,60.77
2023-03-06T06:54:02.092Z,60.77
2023-03-06T06:54:34.824Z,44.83
2023-03-06T06:55:08.283Z,29.83
2023-03-06T06:55:40.656Z,30.10
2023-03-06T06:56:13.477Z,29.73
2023-03-06T06:56:45.767Z,29.70
2023-03-06T06:57:18.097Z,30.80
2023-03-06T06:57:50.403Z,30.27
2023-03-06T06:58:22.704Z,31.13
2023-03-06T06:59:03.917Z,32.47
2023-03-06T06:59:46.438Z,38.57
2023-03-06T07:00:19.235Z,35.80
2023-03-06T07:00:52.023Z,31.10
2023-03-06T07:01:24.395Z,121.17
2023-03-06T07:01:57.117Z,175.07
2023-03-06T07:02:29.423Z,122.97
2023-03-06T07:03:01.833Z,62.30
2023-03-06T07:03:34.508Z,48.83
2023-03-06T07:04:06.906Z,38.93
2023-03-06T07:04:49.260Z,35.57
2023-03-06T07:05:28.750Z,56.27
2023-03-06T07:06:01.115Z,66.70
2023-03-06T07:06:33.524Z,67.53
2023-03-06T07:07:06.020Z,56.60
2023-03-06T07:07:39.290Z,45.70
2023-03-06T07:08:11.709Z,97.40
2023-03-06T07:08:44.001Z,192.77
2023-03-06T07:09:16.455Z,212.43
2023-03-06T07:09:48.910Z,103.30
2023-03-06T07:10:21.293Z,64.67
2023-03-06T07:10:56.115Z,44.17